Aeroporto :







RITROVATECI SU...

 
LOGIN :

Iscrizione | Disclaimer

   EN    FR    IT 

 









Sommario :    VFR   VFR Marginale   IFR   IFR Intensivo   IFR Molto Intensivo
Visibilità : 
Base nubi : 
>= 8 km
>= 3000ft
5 / 8 km
1000 / 3000 ft
1500m / 5 km
500 / 1000 ft
800 / 1500m
200 / 500 ft
< 800m
< 200 ft
Simboli :   Temporali  Nebbia  Neve Forte  Precipitazioni Forti  Vento > 20 kt






- Altitudine del aeroporto : 198 ft
- Codice IATA : STM


SBSN - Maestro Wilson Fonseca Int.

ULTIMO METAR :
  • 012000Z 09007KT 9999 SCT013 SCT100 25/25 Q1012 RETS

METARs OBSOLETI :
  • 011900Z 17005KT 6000 -TSRA SCT010 FEW017CB BKN100 24/23 Q1012 RERA
  • 011805Z 18007KT 1800 R10///// +TSRA BKN010 FEW017CB SCT100 25/24 Q1013
  • 011800Z 05007KT 9999 4000E -TSRA BKN013 FEW017CB SCT100 30/23 Q1012

TAF TAF SBSN
Valido dal 01 a 18 ore il 02 a 18 ore UTC


011500Z 0118/0218 12007KT 8000 SCT017 FEW023TCU TN24/0208Z TX30/0217Z
TEMPO 0122/0202 TS FEW015 FEW025CB
PROB30
TEMPO 0203/0205 7000 TS FEW015 FEW025CB
BECMG 0204/0206 SCT012
BECMG 0212/0214 SCT017 RMK PDU
FIR SBAZ / Sudamerica



MetMap, La meteo Aeronautica in un colpo d'occhio ! - Copyright ORBIFLY Dicembre 2007 - Disclaimer

ORBIFLY MET'MAP TEAM :

Programmazione e sviluppo : Alexandra Zaïnal
Concezione : Baudouin d'Aumeries
Aiuto per la programmazione : Marc-Olivier Méhu
Supporto tecnico e logistico : Manuel Goepfert
Aiuto per la traduzione : Arnaldo La Scala

Contatto : metmap@orbifly.com




FONTI E CREDITI :

   NOAA